默认 日期 大小 文件数 浏览量 最新下载 xml
¨fly磁力链接相关资源由用户搜索指令自动获取,结果来源于网络,本站不存储任何资料,亦不承担任何责任,请于24小时内删除,搜索到5906个磁力,显示前4000条数据,用时4ms。
    {"Fly Girls.jpg": 125297, "Fly Girls a.jpg": 196440, "Fly Girls b.jpg": 257044, "Fly Girls c.jpeg": 491893, "Fly Girls d.jpeg": 527019, "Fly Girls 720p BluRay x264.mkv": 7045644892}
创建时间: 2021-01-14 03:36:22 大小:6.56 GB 文件数量:6 热度:13 最近下载:2025-07-04 01:45:01
    ... .mp3": 7714493, "02. Born to Fly.mp3": 8071856, "11. Smoky Ebony ... .mp3": 8569245, "13. Born to Fly (Acoustic Version) (Japan Bonus Track ...
创建时间: 2021-01-14 04:14:27 大小:115.17 MB 文件数量:15 热度:3 最近下载:2025-09-15 22:38:04
    {"Watchmen.S01E09.See.How.They.Fly.MULTi.720p.AMZN.WEB-DL.H264-TVM4iN.mkv": 2047913179, "Watchmen.S01E09.See.How.They.Fly.MULTi.720p.AMZN.WEB-DL.H264-TVM4iN.nfo": 8382}
创建时间: 2021-01-14 18:04:54 大小:1.91 GB 文件数量:2 热度:2 最近下载:2025-02-22 19:22:08
    ... , "08 - Heaven.flac": 21287746, "09 - Fly Me By.flac": 23201395, "10 ...
创建时间: 2021-01-15 18:15:17 大小:191.12 MB 文件数量:11 热度:2 最近下载:2025-01-02 04:44:06
    {"Lano and Woodley Fly (2020) (1080p AMZN WEB-DL x265 YOGI).mkv": 2203653392}
创建时间: 2021-01-16 02:50:08 大小:2.05 GB 文件数量:1 热度:4 最近下载:2025-09-19 05:06:04
    {"RARBG.txt": 30, "the.challenge.s30e00.let.the.dirt.fly.1080p.web.x264-tbs.mkv": 1550000064, "the.challenge.s30e00.let.the.dirt.fly.1080p.web.x264-tbs.nfo": 67}
创建时间: 2021-01-18 13:30:10 大小:1.44 GB 文件数量:3 热度:2 最近下载:2025-01-25 17:26:03
    {"back.jpg": 63463, "cover.jpg": 331338, "02 - I Can Fly (Extd. Mix).mp3": 12564654, "01 - I Can Fly (Single Mix).mp3": 9204264, "04 - I Can Fly (Instrumental Mix).mp3": 9044407, "03 - I Can Fly (Up To The Sky Mix).mp3": 11564703}
创建时间: 2021-01-18 19:05:27 大小:40.79 MB 文件数量:6 热度:2 最近下载:2025-01-10 15:45:09
    ... RG].bmp": 2021430, "Nicki Minaj - Fly ft. Rihanna HD 720p(RaHuL ... RG].mkv": 56174233, "Nicki Minaj - Fly ft. Rihanna HD 720p(RaHuL ... .14].png": 673553, "Nicki Minaj - Fly ft. Rihanna HD 720p(RaHuL ... .35].png": 573256, "Nicki Minaj - Fly ft. Rihanna HD 720p(RaHuL ...
创建时间: 2021-01-20 13:05:42 大小:57.55 MB 文件数量:16 热度:9 最近下载:2025-10-18 03:32:02
    {"covers": {"disc.jpg": 34127, "cover.jpg": 235276}, "Secret Love - Don't Fly Away (CDM) 1995.cue": 763, "Secret Love - Don't Fly Away (CDM) 1995.log": 1843, "Secret Love - Don't Fly Away (CDM) 1995.flac": 135445468}
创建时间: 2021-01-21 04:03:21 大小:129.43 MB 文件数量:5 热度:2 最近下载:2025-01-19 23:53:07
    ... ": 61834716, "Fly, Fly My Sadness.cue": 1051, "01 Fly, Fly My Sadness.flac ... Angelite Feat. Huun-Huur-Tu - Fly, Fly My Sadness.jpg": 42619, " ... Angelite Feat. Huun-Huur-Tu - Fly, Fly My Sadness.log": 8288, " ... Feat. Huun-Huur-Tu - Fly, Fly My Sadness.m3u": 762}
创建时间: 2021-01-21 18:36:17 大小:256.27 MB 文件数量:9 热度:6 最近下载:2025-01-21 22:48:14
    {"logo.jpg": 60540, "scan.jpg": 435232, "01 - Boh Bohiv.mp3": 2444025, "07 - Angel vitav.mp3": 1934242, "17 - Ishla Maryna.mp3": 3706272, "04 - Sviatyj Bozhe.mp3": 4763096, "08 - Skorbnaja Maty.mp3": 5426545, "02 - Viruju, Hospody.mp3": 3851784, "13 - Oj ...
创建时间: 2021-01-22 12:40:38 大小:78.59 MB 文件数量:22 热度:2 最近下载:2025-01-25 17:26:03
    {"Come.Fly.with.Me.Season.2.Episode.01.Series.2.Episode.1.HDTV.XViD-DOT.txt": 173, "Come.Fly.with.Me.Season.2.Episode.01.Series.2.Episode.1.HDTV.XViD-DOT.zip": 364904704}
创建时间: 2021-01-23 02:43:48 大小:348 MB 文件数量:2 热度:3 最近下载:2025-09-18 20:20:13
    ... .cue": 1680, "Fly or Die.jpg": 7306449, "Fly or Die.log": 12152 ... . The Storm.flac": 29358577, "08. Fly or Die.flac": 3816791, "03 ...
创建时间: 2021-01-23 04:30:42 大小:192.99 MB 文件数量:13 热度:3 最近下载:2025-01-10 18:24:04
    ... '.mp3": 8996770, "03 - Let's Fly.mp3": 8858218, "01 - The Groove ... ": 9357892, "Zoe � Let's Fly.jpg": 43637, "08 - Angels Dancing ... ": 7720331, "Zoe � Let's Fly (2009).jpg": 24146, "11 - Drive ...
创建时间: 2021-01-23 10:29:23 大小:90.13 MB 文件数量:13 热度:2 最近下载:2025-01-27 03:52:07
    {"o.jpg": 364594, "Mixfiend nfo.nfo": 2502, "Mixfiend Logo.jpg": 8777, "43-Webbie-Bend_Over.mp3": 4719556, "38-Webbie-Halle_Berry.mp3": 9507282, "25-Lil_Boosie-Dope_Man.mp3": 3901929, "37-Webbie-How_We_Do_It.mp3": 4135986, "12-Gucci_Mane-Wonderful.mp3": ...
创建时间: 2021-01-23 15:57:46 大小:178.61 MB 文件数量:48 热度:5 最近下载:2025-09-21 16:36:03
    {"(02) Belinda Loys - I Wanna Fly (Club Mix).wav": 35410006, "(01) Belinda Loys - I Wanna Fly (Radio Mix).wav": 46852486, "(03) Belinda Loys - I Wanna Fly (Speed Mix).wav": 46793686, "(04) Belinda Loys - I Wanna Fly (Stone Mix).wav": 47440486}
创建时间: 2021-01-24 08:04:59 大小:168.32 MB 文件数量:4 热度:3 最近下载:2025-01-24 01:51:10
    {"29 Leadership Secrets From Jack Welch Ebook Fly.jpg": 51027, "29 Leadership Secrets From Jack Welch Ebook Fly.pdf": 1478498}
创建时间: 2021-01-24 09:17:40 大小:1.46 MB 文件数量:2 热度:2 最近下载:2025-02-15 18:09:02
    ... leaves - trio pim jacobs - Come Fly With Me - 1982 - pyramid power ... soul - trio pim jacobs - Come Fly With Me - 1982 - pyramid ... serenade - trio pim jacobs - Come Fly With Me - 1982 - pyramid power ... string - trio pim jacobs - Come Fly With Me - 1982 - pyramid ...
创建时间: 2021-01-25 13:16:26 大小:279.64 MB 文件数量:14 热度:2 最近下载:2025-01-07 17:25:03
    {"VIDEO_TS": {"VIDEO_TS.BUP": 12288, "VIDEO_TS.IFO": 12288, "VIDEO_TS.VOB": 51200, "VTS_01_0.BUP": 69632, "VTS_01_0.IFO": 69632, "VTS_01_0.VOB": 49152, "VTS_01_1.VOB": 1073739776, "VTS_01_2.VOB": 1073739776, "VTS_01_3.VOB": 1073739776, "VTS_01_4.VOB": ...
创建时间: 2021-01-25 18:18:05 大小:4.36 GB 文件数量:12 热度:6 最近下载:2025-06-24 20:59:02
    {"Dragon.Quest.-.Dai.No.Daibouken.Ep01.RAW-x264.LAT-JAP.By.CarlosJ.&.fbpr85.mp4": 184139143, "Dragon.Quest.-.Dai.No.Daibouken.Ep02.RAW-x264.LAT-JAP.By.CarlosJ.&.fbpr85.mp4": 184200478, "Dragon.Quest.-.Dai.No.Daibouken.Ep03.RAW-x264.LAT-JAP.By.CarlosJ.&. ...
创建时间: 2021-01-27 07:27:52 大小:7.61 GB 文件数量:48 热度:2 最近下载:2025-01-23 14:34:08